createdAt,value
2022-10-18T00:00:22.420Z,4.59
2022-10-18T00:02:49.792Z,4.58
2022-10-18T00:05:17.296Z,4.55
2022-10-18T00:07:44.604Z,4.55
2022-10-18T00:10:11.914Z,4.55
2022-10-18T00:12:39.651Z,4.52
2022-10-18T00:15:08.480Z,4.57
2022-10-18T00:17:36.456Z,4.58
2022-10-18T00:20:06.015Z,4.54
2022-10-18T00:22:36.352Z,4.52
2022-10-18T00:25:04.487Z,4.54
2022-10-18T00:27:32.589Z,4.58
2022-10-18T00:30:00.457Z,4.58
2022-10-18T00:32:28.084Z,4.59
2022-10-18T00:34:55.715Z,4.61
2022-10-18T00:37:23.128Z,4.54
2022-10-18T00:42:20.998Z,4.43
2022-10-18T00:47:26.807Z,4.43
2022-10-18T00:49:57.454Z,4.34
2022-10-18T00:52:30.283Z,4.38
2022-10-18T00:54:58.518Z,4.41
2022-10-18T00:57:26.531Z,4.36
2022-10-18T00:59:54.520Z,4.35
2022-10-18T01:02:22.237Z,4.31
2022-10-18T01:04:50.100Z,4.24
2022-10-18T01:13:25.805Z,4.24
2022-10-18T01:16:18.604Z,4.21
2022-10-18T01:18:58.844Z,4.24
2022-10-18T01:32:35.548Z,4.40
2022-10-18T01:35:08.120Z,4.43
2022-10-18T01:37:38.046Z,4.51
2022-10-18T01:40:08.044Z,4.58
2022-10-18T01:42:35.755Z,4.62
2022-10-18T01:45:04.610Z,4.64
2022-10-18T01:47:32.756Z,4.65
2022-10-18T01:50:05.046Z,4.63
2022-10-18T01:52:33.427Z,4.64
2022-10-18T01:55:02.165Z,4.64
2022-10-18T02:00:30.883Z,4.74
2022-10-18T02:03:07.355Z,4.68
2022-10-18T02:08:46.008Z,4.74
2022-10-18T02:11:16.282Z,4.71
2022-10-18T02:13:52.282Z,4.72
2022-10-18T02:16:39.558Z,4.74
2022-10-18T02:19:30.366Z,4.77
2022-10-18T02:21:59.361Z,4.81
2022-10-18T02:24:34.759Z,4.84
2022-10-18T02:27:02.623Z,4.86
2022-10-18T02:35:18.500Z,4.99
2022-10-18T02:37:48.669Z,4.95
2022-10-18T02:40:17.120Z,4.94
2022-10-18T02:42:48.751Z,4.94
2022-10-18T02:45:16.633Z,4.94
2022-10-18T02:47:44.180Z,4.94
2022-10-18T02:50:11.738Z,4.93
2022-10-18T02:52:39.308Z,4.93
2022-10-18T02:55:08.194Z,4.93
2022-10-18T02:57:35.744Z,4.94
2022-10-18T03:00:05.382Z,4.93
2022-10-18T03:02:32.856Z,4.96
2022-10-18T03:05:00.347Z,4.96
2022-10-18T03:07:27.719Z,4.99
2022-10-18T03:09:55.000Z,5.00
2022-10-18T03:12:22.386Z,5.02
2022-10-18T03:14:49.776Z,5.05
2022-10-18T03:17:17.169Z,5.10
2022-10-18T03:19:44.922Z,5.13
2022-10-18T03:22:12.324Z,5.16
2022-10-18T03:24:39.659Z,5.19
2022-10-18T03:27:07.012Z,5.22
2022-10-18T03:29:34.372Z,5.25
2022-10-18T03:32:01.854Z,5.28
2022-10-18T03:34:29.302Z,5.31
2022-10-18T03:37:00.994Z,5.33
2022-10-18T03:39:30.804Z,5.34
2022-10-18T03:41:58.222Z,5.35
2022-10-18T03:44:25.652Z,5.36
2022-10-18T03:46:53.226Z,5.40
2022-10-18T03:49:20.606Z,5.42
2022-10-18T03:51:47.973Z,5.44
2022-10-18T03:54:15.888Z,5.44
2022-10-18T03:56:43.374Z,5.45
2022-10-18T03:59:10.705Z,5.47
2022-10-18T04:01:38.096Z,5.47
2022-10-18T04:04:05.512Z,5.45
2022-10-18T04:06:32.963Z,5.45
2022-10-18T04:09:00.383Z,5.45
2022-10-18T04:11:27.810Z,5.45
2022-10-18T04:13:55.477Z,5.45
2022-10-18T04:16:23.035Z,5.43
2022-10-18T04:18:50.382Z,5.44
2022-10-18T04:21:17.808Z,5.44
2022-10-18T04:23:48.093Z,5.45
2022-10-18T04:26:17.866Z,5.47
2022-10-18T04:28:45.497Z,5.50
2022-10-18T04:31:13.017Z,5.52
2022-10-18T04:33:40.720Z,5.55
2022-10-18T04:36:08.309Z,5.62
2022-10-18T04:38:35.872Z,5.68
2022-10-18T04:41:03.360Z,5.73
2022-10-18T04:43:30.901Z,5.78
2022-10-18T04:45:58.562Z,5.84
2022-10-18T04:48:26.118Z,5.88
2022-10-18T04:50:53.550Z,5.93
2022-10-18T04:53:21.125Z,5.96
2022-10-18T04:55:49.588Z,6.00
2022-10-18T04:58:18.028Z,6.05
2022-10-18T05:00:46.029Z,6.07
2022-10-18T05:03:14.466Z,6.12
2022-10-18T05:06:00.879Z,6.16
2022-10-18T05:08:29.657Z,6.20
2022-10-18T05:10:57.254Z,6.24
2022-10-18T05:13:24.832Z,6.30
2022-10-18T05:15:52.240Z,6.35
2022-10-18T05:18:19.618Z,6.40
2022-10-18T05:20:47.326Z,6.46
2022-10-18T05:23:14.723Z,6.50
2022-10-18T05:25:43.475Z,6.56
2022-10-18T05:28:34.750Z,6.62
2022-10-18T05:31:07.728Z,6.68
2022-10-18T05:33:35.528Z,6.76
2022-10-18T05:36:02.942Z,6.82
2022-10-18T05:38:31.610Z,6.88
2022-10-18T05:40:59.978Z,6.94
2022-10-18T05:43:29.204Z,7.00
2022-10-18T05:45:57.003Z,7.04
2022-10-18T05:48:25.173Z,7.07
2022-10-18T05:50:52.994Z,7.12
2022-10-18T05:53:37.212Z,7.15
2022-10-18T05:56:06.225Z,7.18
2022-10-18T05:58:34.017Z,7.17
2022-10-18T06:01:02.594Z,7.17
2022-10-18T06:03:31.204Z,7.17
2022-10-18T06:06:02.326Z,7.19
2022-10-18T06:08:30.193Z,7.22
2022-10-18T06:10:57.723Z,7.28
2022-10-18T06:13:25.207Z,7.37
2022-10-18T06:15:57.719Z,7.41
2022-10-18T06:18:25.283Z,7.44
2022-10-18T06:21:00.237Z,7.45
2022-10-18T06:23:28.412Z,7.46
2022-10-18T06:26:02.198Z,7.46
2022-10-18T06:28:30.407Z,7.46
2022-10-18T06:30:58.208Z,7.46
2022-10-18T06:33:25.717Z,7.44
2022-10-18T06:35:58.277Z,7.47
2022-10-18T06:38:26.258Z,7.46
2022-10-18T06:40:54.505Z,7.45
2022-10-18T06:43:22.135Z,7.42
2022-10-18T06:45:50.576Z,7.40
2022-10-18T06:50:53.626Z,7.33
2022-10-18T06:53:21.138Z,7.32
2022-10-18T06:55:48.649Z,7.31
2022-10-18T06:58:16.499Z,7.31
2022-10-18T07:00:45.598Z,7.29
2022-10-18T07:03:13.172Z,7.27
2022-10-18T07:05:41.275Z,7.27
2022-10-18T07:08:08.737Z,7.26
2022-10-18T07:10:36.542Z,7.24
2022-10-18T07:13:27.488Z,7.23
2022-10-18T07:16:02.432Z,7.23
2022-10-18T07:18:29.941Z,7.21
2022-10-18T07:20:57.320Z,7.19
2022-10-18T07:23:24.832Z,7.19
2022-10-18T07:25:52.226Z,7.18
2022-10-18T07:28:19.589Z,7.18
2022-10-18T07:30:46.963Z,7.17
2022-10-18T07:33:14.420Z,7.18
2022-10-18T07:35:41.793Z,7.17
2022-10-18T07:38:09.150Z,7.16
2022-10-18T07:40:36.462Z,7.15
2022-10-18T07:43:04.841Z,7.15
2022-10-18T07:45:32.975Z,7.14
2022-10-18T07:48:00.452Z,7.15
2022-10-18T07:50:27.782Z,7.17
2022-10-18T07:52:55.109Z,7.18
2022-10-18T07:55:22.485Z,7.19
2022-10-18T07:57:49.874Z,7.19
2022-10-18T08:00:17.275Z,7.19
2022-10-18T08:02:44.641Z,7.22
2022-10-18T08:05:12.186Z,7.21
2022-10-18T08:07:39.614Z,7.23
2022-10-18T08:10:07.214Z,7.22
2022-10-18T08:12:34.582Z,7.23
2022-10-18T08:15:04.928Z,7.24
2022-10-18T08:17:32.908Z,7.26
2022-10-18T08:20:11.626Z,7.28
2022-10-18T08:22:49.891Z,7.31
2022-10-18T08:25:17.556Z,7.32
2022-10-18T08:27:45.330Z,7.33
2022-10-18T08:30:12.813Z,7.35
2022-10-18T08:32:40.353Z,7.33
2022-10-18T08:35:09.357Z,7.30
2022-10-18T08:37:36.843Z,7.28
2022-10-18T08:40:04.699Z,7.27
2022-10-18T08:43:07.482Z,7.23
2022-10-18T08:45:42.755Z,7.22
2022-10-18T08:48:24.011Z,7.22
2022-10-18T08:50:54.615Z,7.23
2022-10-18T08:53:35.056Z,7.21
2022-10-18T08:56:15.027Z,7.20
2022-10-18T08:58:44.965Z,7.20
2022-10-18T09:06:50.893Z,7.25
2022-10-18T09:09:32.276Z,7.16
2022-10-18T09:15:30.129Z,7.21
2022-10-18T09:20:47.847Z,7.19
2022-10-18T09:26:20.175Z,7.21
2022-10-18T09:34:54.224Z,7.22
2022-10-18T09:37:43.742Z,7.16
2022-10-18T09:43:16.464Z,7.23
2022-10-18T09:45:56.508Z,7.20
2022-10-18T09:51:24.523Z,7.28
2022-10-18T10:02:29.156Z,7.44
2022-10-18T10:05:13.464Z,7.48
2022-10-18T10:07:56.808Z,7.51
2022-10-18T10:10:47.128Z,7.56
2022-10-18T10:16:07.150Z,7.71
2022-10-18T10:18:52.263Z,7.70
2022-10-18T10:21:36.394Z,7.76
2022-10-18T10:24:26.190Z,7.81
2022-10-18T10:27:20.756Z,7.84
2022-10-18T10:30:07.221Z,7.88
2022-10-18T10:33:00.621Z,7.91
2022-10-18T10:35:53.870Z,7.96
2022-10-18T10:38:31.581Z,8.00
2022-10-18T10:41:27.348Z,8.09
2022-10-18T10:44:26.912Z,8.14
2022-10-18T10:47:04.487Z,8.25
2022-10-18T10:52:38.012Z,8.41
2022-10-18T10:55:34.793Z,8.40
2022-10-18T10:58:28.669Z,8.49
2022-10-18T11:01:38.028Z,8.59
2022-10-18T11:04:37.515Z,8.71
2022-10-18T11:08:01.495Z,8.87
2022-10-18T11:11:06.010Z,8.97
2022-10-18T11:16:39.096Z,9.16
2022-10-18T11:22:27.232Z,9.29
2022-10-18T11:25:05.698Z,9.33
2022-10-18T11:28:21.565Z,9.43
2022-10-18T11:43:04.277Z,9.80
2022-10-18T11:59:54.298Z,10.23
2022-10-18T12:03:19.037Z,10.30
2022-10-18T12:06:07.686Z,10.30
2022-10-18T12:11:36.713Z,10.43
2022-10-18T12:14:35.844Z,10.46
2022-10-18T12:23:19.790Z,10.77
2022-10-18T12:26:19.483Z,10.77
2022-10-18T12:43:34.346Z,11.15
2022-10-18T12:46:25.352Z,11.18
2022-10-18T12:49:26.765Z,11.18
2022-10-18T12:52:18.005Z,11.26
2022-10-18T13:31:00.787Z,11.66
2022-10-18T13:33:51.129Z,11.64
2022-10-18T13:36:37.323Z,11.64
2022-10-18T13:39:28.284Z,11.63
2022-10-18T13:44:44.925Z,11.67
2022-10-18T13:47:49.273Z,11.67
2022-10-18T13:50:46.361Z,11.70
2022-10-18T13:54:07.296Z,11.74
2022-10-18T14:08:38.122Z,11.93
2022-10-18T14:17:25.659Z,11.97
2022-10-18T14:20:55.262Z,12.02
2022-10-18T14:23:56.971Z,12.05
2022-10-18T14:26:41.743Z,12.01
2022-10-18T14:29:31.459Z,12.01
2022-10-18T14:35:36.043Z,12.06
2022-10-18T14:38:21.326Z,11.94
2022-10-18T14:41:25.299Z,11.97
2022-10-18T14:44:36.532Z,11.98
2022-10-18T14:47:41.654Z,11.97
2022-10-18T14:50:32.580Z,11.99
2022-10-18T14:53:27.843Z,11.99
2022-10-18T14:56:19.548Z,12.01
2022-10-18T14:59:09.222Z,12.03
2022-10-18T15:01:57.770Z,12.08
2022-10-18T15:04:48.509Z,12.08
2022-10-18T15:07:34.944Z,12.08
2022-10-18T15:10:34.019Z,12.09
2022-10-18T15:13:30.401Z,12.13
2022-10-18T15:16:36.605Z,12.12
2022-10-18T15:22:30.643Z,12.07
2022-10-18T15:28:22.783Z,12.07
2022-10-18T15:31:10.160Z,12.08
2022-10-18T15:34:01.690Z,12.05
2022-10-18T15:36:41.456Z,12.05
2022-10-18T15:42:28.546Z,11.92
2022-10-18T15:45:32.298Z,11.86
2022-10-18T15:51:12.766Z,11.86
2022-10-18T15:56:50.668Z,11.74
2022-10-18T15:59:39.123Z,11.66
2022-10-18T16:02:21.239Z,11.59
2022-10-18T16:05:05.303Z,11.50
2022-10-18T16:07:45.832Z,11.47
2022-10-18T16:10:35.326Z,11.47
2022-10-18T16:13:30.592Z,11.38
2022-10-18T16:16:14.584Z,11.38
2022-10-18T16:19:06.163Z,11.33
2022-10-18T16:21:44.547Z,11.30
2022-10-18T16:24:27.687Z,11.18
2022-10-18T16:27:04.487Z,11.18
2022-10-18T16:29:52.041Z,11.16
2022-10-18T16:32:34.387Z,11.10
2022-10-18T16:35:21.245Z,11.07
2022-10-18T16:38:07.727Z,11.04
2022-10-18T16:40:56.757Z,11.01
2022-10-18T16:43:38.347Z,10.99
2022-10-18T16:49:12.859Z,10.76
2022-10-18T16:51:52.930Z,10.76
2022-10-18T16:54:37.916Z,10.69
2022-10-18T16:57:28.670Z,10.59
2022-10-18T17:00:11.111Z,10.59
2022-10-18T17:03:04.628Z,10.50
2022-10-18T17:05:48.712Z,10.42
2022-10-18T17:08:38.412Z,10.38
2022-10-18T17:11:21.877Z,10.37
2022-10-18T17:14:05.660Z,10.29
2022-10-18T17:16:54.669Z,10.25
2022-10-18T17:19:36.024Z,10.23
2022-10-18T17:22:17.147Z,10.19
2022-10-18T17:25:00.805Z,10.13
2022-10-18T17:27:40.133Z,10.05
2022-10-18T17:30:28.288Z,9.95
2022-10-18T17:33:01.532Z,9.89
2022-10-18T17:35:39.950Z,9.83
2022-10-18T17:38:21.884Z,9.77
2022-10-18T17:40:57.003Z,9.75
2022-10-18T17:43:29.054Z,9.74
2022-10-18T17:46:24.842Z,9.77
2022-10-18T17:49:02.239Z,9.72
2022-10-18T17:51:46.760Z,9.67
2022-10-18T17:54:35.055Z,9.67
2022-10-18T17:57:26.502Z,9.67
2022-10-18T18:00:04.113Z,9.68
2022-10-18T18:02:59.542Z,9.74
2022-10-18T18:05:37.089Z,9.69
2022-10-18T18:08:21.830Z,9.72
2022-10-18T18:11:04.450Z,9.73
2022-10-18T18:13:54.618Z,9.73
2022-10-18T18:16:38.738Z,9.77
2022-10-18T18:19:19.158Z,9.72
2022-10-18T18:21:55.300Z,9.71
2022-10-18T18:24:36.057Z,9.66
2022-10-18T18:27:17.008Z,9.61
2022-10-18T18:29:57.875Z,9.58
2022-10-18T18:32:38.479Z,9.54
2022-10-18T18:35:26.815Z,9.51
2022-10-18T18:38:06.440Z,9.49
2022-10-18T18:41:02.033Z,9.56
2022-10-18T18:43:42.257Z,9.53
2022-10-18T18:46:17.168Z,9.55
2022-10-18T18:48:59.038Z,9.54
2022-10-18T18:51:44.652Z,9.57
2022-10-18T18:54:30.590Z,9.54
2022-10-18T18:57:10.158Z,9.47
2022-10-18T18:59:42.838Z,9.39
2022-10-18T19:02:18.297Z,9.30
2022-10-18T19:05:01.716Z,9.27
2022-10-18T19:07:42.168Z,9.22
2022-10-18T19:10:19.625Z,9.20
2022-10-18T19:12:54.511Z,9.19
2022-10-18T19:15:30.472Z,9.13
2022-10-18T19:18:05.289Z,9.07
2022-10-18T19:20:45.002Z,9.04
2022-10-18T19:23:14.063Z,9.00
2022-10-18T19:25:53.509Z,8.96
2022-10-18T19:28:27.882Z,8.93
2022-10-18T19:31:08.507Z,8.85
2022-10-18T19:33:55.622Z,8.76
2022-10-18T19:36:35.817Z,8.70
2022-10-18T19:39:15.953Z,8.62
2022-10-18T19:41:52.401Z,8.51
2022-10-18T19:44:30.783Z,8.42
2022-10-18T19:47:09.773Z,8.32
2022-10-18T19:49:48.962Z,8.20
2022-10-18T19:52:18.734Z,8.10
2022-10-18T19:54:51.394Z,8.03
2022-10-18T19:57:23.485Z,7.94
2022-10-18T20:00:01.010Z,7.86
2022-10-18T20:02:55.840Z,7.83
2022-10-18T20:05:35.445Z,7.73
2022-10-18T20:08:08.511Z,7.67
2022-10-18T20:10:41.232Z,7.61
2022-10-18T20:13:15.717Z,7.61
2022-10-18T20:15:54.091Z,7.63
2022-10-18T20:18:28.214Z,7.63
2022-10-18T20:20:59.868Z,7.63
2022-10-18T20:23:33.013Z,7.65
2022-10-18T20:26:08.678Z,7.63
2022-10-18T20:28:42.207Z,7.64
2022-10-18T20:31:18.421Z,7.62
2022-10-18T20:33:55.506Z,7.61
2022-10-18T20:36:28.682Z,7.62
2022-10-18T20:39:04.867Z,7.59
2022-10-18T20:41:41.540Z,7.54
2022-10-18T20:44:16.909Z,7.44
2022-10-18T20:46:47.612Z,7.37
2022-10-18T20:49:20.580Z,7.36
2022-10-18T20:51:51.494Z,7.40
2022-10-18T20:54:23.717Z,7.40
2022-10-18T20:56:53.072Z,7.39
2022-10-18T20:59:23.461Z,7.40
2022-10-18T21:01:53.955Z,7.43
2022-10-18T21:04:27.060Z,7.45
2022-10-18T21:06:56.512Z,7.46
2022-10-18T21:09:26.106Z,7.49
2022-10-18T21:11:54.829Z,7.51
2022-10-18T21:14:25.201Z,7.53
2022-10-18T21:16:53.511Z,7.57
2022-10-18T21:19:25.036Z,7.57
2022-10-18T21:21:54.972Z,7.59
2022-10-18T21:24:24.920Z,7.63
2022-10-18T21:26:52.963Z,7.64
2022-10-18T21:29:22.496Z,7.63
2022-10-18T21:31:54.679Z,7.62
2022-10-18T21:34:22.598Z,7.63
2022-10-18T21:36:51.346Z,7.65
2022-10-18T21:41:52.075Z,7.64
2022-10-18T21:44:20.207Z,7.62
2022-10-18T21:46:48.142Z,7.59
2022-10-18T21:49:16.826Z,7.61
2022-10-18T21:51:46.026Z,7.62
2022-10-18T21:54:16.580Z,7.65
2022-10-18T21:56:44.299Z,7.64
2022-10-18T21:59:14.146Z,7.61
2022-10-18T22:01:44.390Z,7.61
2022-10-18T22:04:23.234Z,7.58
2022-10-18T22:06:52.225Z,7.56
2022-10-18T22:09:21.604Z,7.53
2022-10-18T22:11:52.485Z,7.50
2022-10-18T22:14:20.053Z,7.52
2022-10-18T22:16:47.599Z,7.51
2022-10-18T22:19:15.047Z,7.51
2022-10-18T22:21:42.415Z,7.49
2022-10-18T22:24:10.498Z,7.50
2022-10-18T22:26:40.394Z,7.48
2022-10-18T22:29:12.880Z,7.46
2022-10-18T22:31:43.961Z,7.49
2022-10-18T22:34:15.591Z,7.49
2022-10-18T22:36:43.700Z,7.48
2022-10-18T22:39:14.570Z,7.46
2022-10-18T22:41:42.581Z,7.48
2022-10-18T22:44:12.678Z,7.48
2022-10-18T22:46:41.218Z,7.47
2022-10-18T22:49:08.991Z,7.46
2022-10-18T22:51:36.440Z,7.48
2022-10-18T22:54:04.167Z,7.45
2022-10-18T22:56:34.141Z,7.45
2022-10-18T22:59:01.532Z,7.48
2022-10-18T23:01:28.938Z,7.48
2022-10-18T23:03:58.728Z,7.44
2022-10-18T23:09:10.516Z,7.43
2022-10-18T23:11:38.414Z,7.32
2022-10-18T23:14:07.015Z,7.36
2022-10-18T23:16:34.816Z,7.35
2022-10-18T23:19:02.546Z,7.34
2022-10-18T23:21:29.880Z,7.21
2022-10-18T23:23:57.681Z,7.17
2022-10-18T23:26:27.416Z,7.20
2022-10-18T23:28:55.022Z,7.10
2022-10-18T23:34:02.248Z,7.18
2022-10-18T23:36:30.931Z,7.09
2022-10-18T23:38:58.318Z,7.01
2022-10-18T23:41:29.564Z,7.02
2022-10-18T23:43:57.050Z,7.04
2022-10-18T23:46:25.298Z,7.07
2022-10-18T23:48:52.782Z,7.08
2022-10-18T23:51:20.177Z,7.08
2022-10-18T23:53:47.605Z,7.04
2022-10-18T23:56:16.756Z,7.04
2022-10-18T23:58:45.441Z,7.04
